createdAt,value
2023-09-24T00:00:07.664Z,6.68
2023-09-24T00:01:08.682Z,6.65
2023-09-24T00:02:06.936Z,6.59
2023-09-24T00:03:07.045Z,6.59
2023-09-24T00:04:07.702Z,6.59
2023-09-24T00:05:08.120Z,6.56
2023-09-24T00:06:07.624Z,6.56
2023-09-24T00:07:06.895Z,6.56
2023-09-24T00:08:06.890Z,6.54
2023-09-24T00:09:07.579Z,6.53
2023-09-24T00:10:06.812Z,6.51
2023-09-24T00:11:08.028Z,6.48
2023-09-24T00:12:08.022Z,6.48
2023-09-24T00:13:08.001Z,6.48
2023-09-24T00:14:08.020Z,6.46
2023-09-24T00:15:06.797Z,6.44
2023-09-24T00:16:08.296Z,6.38
2023-09-24T00:17:07.398Z,6.33
2023-09-24T00:18:07.511Z,6.28
2023-09-24T00:19:07.766Z,6.21
2023-09-24T00:20:07.363Z,6.16
2023-09-24T00:21:07.353Z,6.13
2023-09-24T00:22:07.333Z,6.14
2023-09-24T00:23:07.321Z,6.13
2023-09-24T00:24:07.314Z,6.14
2023-09-24T00:25:07.276Z,6.21
2023-09-24T00:26:06.595Z,6.25
2023-09-24T00:27:07.264Z,6.25
2023-09-24T00:28:06.544Z,6.26
2023-09-24T00:29:06.553Z,6.26
2023-09-24T00:30:07.224Z,6.22
2023-09-24T00:31:06.543Z,6.18
2023-09-24T00:32:07.271Z,6.13
2023-09-24T00:33:06.613Z,6.09
2023-09-24T00:34:06.506Z,6.09
2023-09-24T00:35:08.211Z,6.06
2023-09-24T00:36:07.137Z,6.04
2023-09-24T00:37:06.479Z,6.03
2023-09-24T00:38:07.122Z,6.03
2023-09-24T00:39:08.137Z,6.00
2023-09-24T00:40:07.074Z,6.00
2023-09-24T00:41:06.394Z,6.00
2023-09-24T00:42:06.359Z,6.00
2023-09-24T00:43:07.038Z,6.00
2023-09-24T00:44:06.372Z,5.96
2023-09-24T00:45:06.330Z,5.95
2023-09-24T00:46:07.075Z,5.93
2023-09-24T00:47:07.006Z,5.92
2023-09-24T00:48:06.395Z,5.91
2023-09-24T00:49:06.290Z,5.91
2023-09-24T00:50:06.952Z,5.92
2023-09-24T00:51:06.951Z,5.93
2023-09-24T00:52:06.931Z,5.96
2023-09-24T00:53:06.934Z,5.96
2023-09-24T00:54:06.271Z,6.01
2023-09-24T00:55:06.200Z,6.01
2023-09-24T00:56:06.164Z,6.03
2023-09-24T00:57:06.844Z,6.03
2023-09-24T00:58:06.163Z,6.04
2023-09-24T00:59:06.792Z,6.04
2023-09-24T01:00:06.111Z,6.03
2023-09-24T01:01:06.124Z,6.03
2023-09-24T01:02:06.777Z,6.00
2023-09-24T01:03:06.951Z,5.98
2023-09-24T01:04:06.830Z,5.95
2023-09-24T01:05:06.774Z,5.93
2023-09-24T01:06:07.310Z,5.91
2023-09-24T01:07:08.210Z,5.89
2023-09-24T01:08:07.248Z,5.86
2023-09-24T01:09:07.255Z,5.85
2023-09-24T01:10:06.707Z,5.82
2023-09-24T01:11:07.212Z,5.81
2023-09-24T01:12:07.214Z,5.77
2023-09-24T01:13:06.650Z,5.78
2023-09-24T01:14:06.702Z,5.78
2023-09-24T01:15:07.175Z,5.77
2023-09-24T01:16:06.134Z,5.78
2023-09-24T01:17:06.651Z,5.78
2023-09-24T01:18:06.013Z,5.81
2023-09-24T01:19:05.921Z,5.78
2023-09-24T01:20:06.568Z,5.73
2023-09-24T01:21:06.596Z,5.71
2023-09-24T01:22:05.911Z,5.68
2023-09-24T01:23:06.506Z,5.67
2023-09-24T01:24:06.583Z,5.67
2023-09-24T01:25:06.484Z,5.70
2023-09-24T01:26:05.855Z,5.71
2023-09-24T01:27:05.856Z,5.73
2023-09-24T01:28:06.447Z,5.73
2023-09-24T01:29:06.998Z,5.74
2023-09-24T01:30:06.424Z,5.75
2023-09-24T01:31:05.744Z,5.77
2023-09-24T01:32:06.406Z,5.81
2023-09-24T01:33:05.894Z,5.78
2023-09-24T01:34:06.553Z,5.81
2023-09-24T01:35:06.385Z,5.77
2023-09-24T01:36:05.718Z,5.77
2023-09-24T01:37:06.323Z,5.75
2023-09-24T01:38:05.600Z,5.73
2023-09-24T01:39:05.648Z,5.71
2023-09-24T01:40:05.607Z,5.70
2023-09-24T01:41:07.315Z,5.70
2023-09-24T01:42:05.638Z,5.67
2023-09-24T01:43:05.541Z,5.64
2023-09-24T01:44:05.549Z,5.60
2023-09-24T01:45:06.220Z,5.60
2023-09-24T01:46:06.205Z,5.55
2023-09-24T01:47:06.239Z,5.46
2023-09-24T01:48:05.590Z,5.40
2023-09-24T01:49:06.176Z,5.40
2023-09-24T01:50:05.471Z,5.37
2023-09-24T01:51:07.198Z,5.34
2023-09-24T01:52:06.145Z,5.34
2023-09-24T01:53:06.254Z,5.31
2023-09-24T01:54:06.148Z,5.30
2023-09-24T01:55:06.099Z,5.30
2023-09-24T01:56:06.072Z,5.27
2023-09-24T01:57:06.067Z,5.25
2023-09-24T01:58:06.057Z,5.23
2023-09-24T01:59:05.403Z,5.22
2023-09-24T02:00:06.050Z,5.23
2023-09-24T02:01:05.336Z,5.27
2023-09-24T02:02:06.027Z,5.30
2023-09-24T02:03:06.042Z,5.32
2023-09-24T02:04:07.223Z,5.40
2023-09-24T02:05:05.280Z,5.43
2023-09-24T02:06:05.499Z,5.48
2023-09-24T02:07:05.956Z,5.49
2023-09-24T02:08:05.243Z,5.53
2023-09-24T02:09:05.895Z,5.53
2023-09-24T02:10:05.287Z,5.55
2023-09-24T02:11:05.882Z,5.57
2023-09-24T02:12:05.872Z,5.60
2023-09-24T02:13:05.210Z,5.64
2023-09-24T02:14:05.154Z,5.70
2023-09-24T02:15:05.852Z,5.73
2023-09-24T02:16:06.477Z,5.73
2023-09-24T02:17:05.162Z,5.75
2023-09-24T02:18:05.231Z,5.78
2023-09-24T02:19:06.314Z,5.81
2023-09-24T02:20:06.293Z,5.78
2023-09-24T02:21:06.391Z,5.78
2023-09-24T02:22:06.297Z,5.78
2023-09-24T02:23:05.705Z,5.85
2023-09-24T02:24:06.322Z,5.89
2023-09-24T02:25:06.261Z,5.91
2023-09-24T02:26:06.240Z,5.93
2023-09-24T02:27:05.276Z,5.96
2023-09-24T02:28:05.645Z,6.00
2023-09-24T02:29:05.653Z,6.00
2023-09-24T02:30:06.719Z,6.03
2023-09-24T02:31:05.093Z,6.06
2023-09-24T02:32:05.603Z,6.06
2023-09-24T02:33:05.619Z,6.09
2023-09-24T02:34:06.203Z,6.10
2023-09-24T02:35:05.525Z,6.11
2023-09-24T02:36:04.891Z,6.11
2023-09-24T02:37:05.522Z,6.13
2023-09-24T02:38:05.506Z,6.16
2023-09-24T02:39:05.540Z,6.18
2023-09-24T02:40:05.467Z,6.16
2023-09-24T02:41:04.774Z,6.18
2023-09-24T02:42:05.437Z,6.19
2023-09-24T02:43:05.458Z,6.18
2023-09-24T02:44:06.457Z,6.19
2023-09-24T02:45:05.438Z,6.18
2023-09-24T02:46:04.789Z,6.18
2023-09-24T02:47:04.757Z,6.19
2023-09-24T02:48:04.765Z,6.16
2023-09-24T02:49:05.327Z,6.14
2023-09-24T02:50:05.339Z,6.13
2023-09-24T02:51:04.665Z,6.10
2023-09-24T02:52:05.618Z,6.07
2023-09-24T02:53:04.620Z,6.09
2023-09-24T02:54:05.309Z,6.07
2023-09-24T02:55:04.646Z,6.06
2023-09-24T02:56:04.578Z,6.04
2023-09-24T02:57:05.286Z,6.04
2023-09-24T02:58:04.568Z,6.04
2023-09-24T02:59:05.205Z,6.06
2023-09-24T03:00:05.190Z,6.07
2023-09-24T03:01:05.181Z,6.10
2023-09-24T03:02:05.188Z,6.14
2023-09-24T03:03:04.592Z,6.18
2023-09-24T03:04:05.306Z,6.21
2023-09-24T03:05:04.445Z,6.21
2023-09-24T03:06:04.487Z,6.21
2023-09-24T03:07:05.103Z,6.25
2023-09-24T03:08:05.097Z,6.26
2023-09-24T03:09:05.063Z,6.28
2023-09-24T03:10:04.397Z,6.22
2023-09-24T03:11:04.360Z,6.21
2023-09-24T03:12:05.066Z,6.22
2023-09-24T03:13:04.374Z,6.25
2023-09-24T03:14:04.320Z,6.26
2023-09-24T03:15:04.998Z,6.26
2023-09-24T03:16:04.310Z,6.26
2023-09-24T03:17:04.970Z,6.22
2023-09-24T03:18:04.338Z,6.25
2023-09-24T03:19:06.166Z,6.19
2023-09-24T03:20:04.250Z,6.18
2023-09-24T03:21:04.281Z,6.18
2023-09-24T03:22:04.913Z,6.14
2023-09-24T03:23:04.695Z,6.11
2023-09-24T03:24:04.977Z,6.10
2023-09-24T03:25:04.858Z,6.10
2023-09-24T03:26:04.156Z,6.07
2023-09-24T03:27:04.862Z,6.07
2023-09-24T03:28:04.846Z,6.07
2023-09-24T03:29:04.809Z,6.07
2023-09-24T03:30:04.811Z,6.07
2023-09-24T03:31:04.067Z,6.06
2023-09-24T03:32:04.774Z,6.06
2023-09-24T03:33:04.198Z,6.04
2023-09-24T03:34:04.745Z,6.03
2023-09-24T03:35:04.043Z,5.98
2023-09-24T03:36:04.147Z,5.95
2023-09-24T03:37:04.012Z,5.91
2023-09-24T03:38:04.066Z,5.89
2023-09-24T03:39:04.159Z,5.89
2023-09-24T03:40:04.677Z,5.86
2023-09-24T03:41:04.012Z,5.83
2023-09-24T03:42:04.645Z,5.78
2023-09-24T03:43:04.615Z,5.78
2023-09-24T03:44:03.935Z,5.78
2023-09-24T03:45:03.973Z,5.78
2023-09-24T03:46:03.993Z,5.75
2023-09-24T03:47:03.923Z,5.74
2023-09-24T03:48:04.587Z,5.73
2023-09-24T03:49:03.847Z,5.73
2023-09-24T03:50:03.817Z,5.71
2023-09-24T03:51:04.517Z,5.70
2023-09-24T03:52:04.475Z,5.68
2023-09-24T03:53:03.849Z,5.66
2023-09-24T03:54:05.549Z,5.67
2023-09-24T03:55:04.437Z,5.66
2023-09-24T03:56:04.428Z,5.67
2023-09-24T03:57:04.432Z,5.67
2023-09-24T03:58:04.403Z,5.67
2023-09-24T03:59:03.725Z,5.68
2023-09-24T04:00:04.408Z,5.67
2023-09-24T04:01:03.682Z,5.67
2023-09-24T04:02:04.352Z,5.66
2023-09-24T04:03:03.769Z,5.66
2023-09-24T04:04:04.503Z,5.67
2023-09-24T04:05:04.304Z,5.66
2023-09-24T04:06:03.621Z,5.66
2023-09-24T04:07:04.270Z,5.66
2023-09-24T04:08:04.277Z,5.63
2023-09-24T04:09:03.589Z,5.63
2023-09-24T04:10:04.227Z,5.63
2023-09-24T04:11:04.216Z,5.63
2023-09-24T04:12:03.594Z,5.60
2023-09-24T04:13:03.528Z,5.57
2023-09-24T04:14:04.207Z,5.56
2023-09-24T04:15:04.215Z,5.57
2023-09-24T04:16:03.523Z,5.56
2023-09-24T04:17:04.154Z,5.55
2023-09-24T04:18:05.155Z,5.56
2023-09-24T04:19:04.117Z,5.56
2023-09-24T04:20:03.425Z,5.57
2023-09-24T04:21:04.105Z,5.57
2023-09-24T04:22:04.079Z,5.60
2023-09-24T04:23:04.093Z,5.60
2023-09-24T04:24:04.096Z,5.63
2023-09-24T04:25:04.038Z,5.60
2023-09-24T04:26:03.349Z,5.60
2023-09-24T04:27:04.584Z,5.63
2023-09-24T04:28:05.040Z,5.60
2023-09-24T04:29:03.290Z,5.60
2023-09-24T04:30:04.025Z,5.60
2023-09-24T04:31:03.280Z,5.60
2023-09-24T04:32:03.950Z,5.59
2023-09-24T04:33:04.549Z,5.57
2023-09-24T04:34:04.563Z,5.57
2023-09-24T04:35:04.432Z,5.57
2023-09-24T04:36:04.476Z,5.56
2023-09-24T04:37:04.423Z,5.55
2023-09-24T04:38:03.266Z,5.53
2023-09-24T04:39:04.455Z,5.50
2023-09-24T04:40:02.426Z,5.49
2023-09-24T04:41:03.809Z,5.46
2023-09-24T04:42:03.108Z,5.48
2023-09-24T04:43:03.779Z,5.48
2023-09-24T04:44:03.135Z,5.48
2023-09-24T04:45:03.800Z,5.49
2023-09-24T04:46:03.072Z,5.49
2023-09-24T04:47:03.038Z,5.48
2023-09-24T04:48:03.860Z,5.49
2023-09-24T04:49:03.909Z,5.50
2023-09-24T04:50:03.707Z,5.52
2023-09-24T04:51:03.708Z,5.53
2023-09-24T04:52:04.272Z,5.53
2023-09-24T04:53:03.646Z,5.53
2023-09-24T04:54:02.973Z,5.50
2023-09-24T04:55:02.958Z,5.49
2023-09-24T04:56:02.949Z,5.48
2023-09-24T04:57:03.028Z,5.49
2023-09-24T04:58:03.652Z,5.50
2023-09-24T04:59:03.555Z,5.53
2023-09-24T05:00:04.166Z,5.55
2023-09-24T05:01:02.893Z,5.57
2023-09-24T05:02:03.526Z,5.63
2023-09-24T05:03:03.725Z,5.63
2023-09-24T05:04:03.122Z,5.60
2023-09-24T05:05:02.953Z,5.60
2023-09-24T05:06:03.526Z,5.60
2023-09-24T05:07:02.783Z,5.63
2023-09-24T05:08:03.443Z,5.57
2023-09-24T05:09:03.467Z,5.56
2023-09-24T05:10:02.675Z,5.55
2023-09-24T05:11:03.451Z,5.52
2023-09-24T05:12:03.461Z,5.50
2023-09-24T05:13:04.334Z,5.49
2023-09-24T05:14:02.716Z,5.46
2023-09-24T05:15:02.791Z,5.45
2023-09-24T05:16:03.408Z,5.43
2023-09-24T05:17:02.700Z,5.40
2023-09-24T05:18:03.426Z,5.40
2023-09-24T05:19:03.303Z,5.34
2023-09-24T05:20:03.275Z,5.31
2023-09-24T05:21:03.308Z,5.31
2023-09-24T05:22:03.247Z,5.30
2023-09-24T05:23:03.233Z,5.31
2023-09-24T05:24:02.643Z,5.32
2023-09-24T05:25:03.217Z,5.31
2023-09-24T05:26:03.222Z,5.30
2023-09-24T05:27:03.259Z,5.27
2023-09-24T05:28:03.289Z,5.28
2023-09-24T05:29:04.232Z,5.25
2023-09-24T05:30:02.637Z,5.22
2023-09-24T05:31:03.149Z,5.19
2023-09-24T05:32:02.451Z,5.23
2023-09-24T05:33:03.277Z,5.22
2023-09-24T05:34:03.633Z,5.25
2023-09-24T05:35:02.437Z,5.27
2023-09-24T05:36:03.077Z,5.30
2023-09-24T05:37:02.421Z,5.32
2023-09-24T05:38:03.584Z,5.34
2023-09-24T05:39:02.381Z,5.37
2023-09-24T05:40:03.000Z,5.38
2023-09-24T05:41:03.598Z,5.41
2023-09-24T05:42:03.621Z,5.43
2023-09-24T05:43:03.531Z,5.48
2023-09-24T05:44:03.497Z,5.50
2023-09-24T05:45:03.558Z,5.53
2023-09-24T05:46:03.527Z,5.57
2023-09-24T05:47:03.465Z,5.63
2023-09-24T05:48:03.570Z,5.66
2023-09-24T05:49:03.437Z,5.70
2023-09-24T05:50:03.463Z,5.74
2023-09-24T05:51:03.491Z,5.77
2023-09-24T05:52:03.430Z,5.82
2023-09-24T05:53:03.413Z,5.88
2023-09-24T05:54:02.849Z,5.92
2023-09-24T05:55:02.129Z,5.95
2023-09-24T05:56:02.798Z,5.98
2023-09-24T05:57:02.993Z,6.03
2023-09-24T05:58:03.769Z,6.07
2023-09-24T05:59:02.808Z,6.07
2023-09-24T06:00:02.781Z,6.11
2023-09-24T06:01:02.765Z,6.16
2023-09-24T06:02:02.094Z,6.18
2023-09-24T06:03:03.295Z,6.16
2023-09-24T06:04:02.252Z,6.22
2023-09-24T06:05:02.042Z,6.28
2023-09-24T06:06:03.746Z,6.32
2023-09-24T06:07:02.666Z,6.35
2023-09-24T06:08:01.960Z,6.41
2023-09-24T06:09:02.663Z,6.47
2023-09-24T06:10:01.969Z,6.53
2023-09-24T06:11:01.954Z,6.59
2023-09-24T06:12:01.941Z,6.63
2023-09-24T06:13:02.563Z,6.66
2023-09-24T06:14:02.555Z,6.72
2023-09-24T06:15:01.905Z,6.80
2023-09-24T06:16:02.686Z,6.83
2023-09-24T06:17:01.834Z,6.79
2023-09-24T06:18:01.908Z,6.86
2023-09-24T06:19:02.480Z,6.97
2023-09-24T06:20:02.488Z,6.99
2023-09-24T06:21:02.484Z,7.02
2023-09-24T06:22:01.806Z,7.07
2023-09-24T06:23:02.450Z,7.15
2023-09-24T06:24:01.809Z,7.22
2023-09-24T06:25:02.429Z,7.26
2023-09-24T06:26:02.387Z,7.34
2023-09-24T06:27:02.952Z,7.35
2023-09-24T06:28:01.707Z,7.35
2023-09-24T06:29:10.925Z,7.42
2023-09-24T06:30:02.674Z,7.47
2023-09-24T06:31:02.293Z,7.44
2023-09-24T06:32:02.332Z,7.44
2023-09-24T06:33:02.947Z,7.44
2023-09-24T06:34:02.294Z,7.44
2023-09-24T06:35:01.660Z,7.41
2023-09-24T06:36:01.672Z,7.42
2023-09-24T06:37:02.275Z,7.34
2023-09-24T06:38:03.190Z,7.26
2023-09-24T06:39:02.245Z,7.27
2023-09-24T06:40:02.242Z,7.23
2023-09-24T06:41:02.192Z,7.23
2023-09-24T06:42:01.604Z,7.27
2023-09-24T06:43:02.248Z,7.29
2023-09-24T06:44:02.163Z,7.38
2023-09-24T06:45:02.182Z,7.37
2023-09-24T06:46:01.529Z,7.40
2023-09-24T06:47:01.484Z,7.53
2023-09-24T06:48:02.753Z,7.62
2023-09-24T06:49:02.172Z,7.74
2023-09-24T06:50:01.395Z,7.78
2023-09-24T06:51:01.453Z,7.82
2023-09-24T06:52:01.366Z,7.87
2023-09-24T06:53:02.059Z,7.94
2023-09-24T06:54:02.035Z,7.93
2023-09-24T06:55:02.042Z,7.97
2023-09-24T06:56:02.945Z,8.10
2023-09-24T06:57:02.044Z,8.17
2023-09-24T06:58:03.022Z,8.20
2023-09-24T06:59:01.262Z,8.30
2023-09-24T07:00:01.947Z,8.39
2023-09-24T07:01:01.916Z,8.53
2023-09-24T07:02:01.247Z,8.62
2023-09-24T07:03:02.015Z,8.72
2023-09-24T07:04:02.078Z,8.84
2023-09-24T07:05:01.857Z,8.91
2023-09-24T07:06:02.471Z,9.01
2023-09-24T07:07:01.183Z,9.04
2023-09-24T07:08:01.826Z,9.12
2023-09-24T07:09:01.855Z,9.10
2023-09-24T07:10:01.178Z,9.12
2023-09-24T07:11:01.076Z,9.01
2023-09-24T07:12:01.183Z,8.88
2023-09-24T07:13:01.806Z,8.94
2023-09-24T07:14:01.728Z,8.90
2023-09-24T07:15:02.895Z,9.02
2023-09-24T07:16:02.319Z,8.94
2023-09-24T07:17:01.687Z,9.02
2023-09-24T07:18:01.746Z,9.20
2023-09-24T07:19:02.214Z,9.32
2023-09-24T07:20:01.640Z,9.46
2023-09-24T07:21:01.665Z,9.38
2023-09-24T07:22:01.645Z,9.30
2023-09-24T07:23:01.620Z,9.31
2023-09-24T07:24:01.701Z,9.39
2023-09-24T07:25:00.899Z,9.40
2023-09-24T07:26:00.921Z,9.38
2023-09-24T07:27:01.625Z,9.31
2023-09-24T07:28:00.858Z,9.35
2023-09-24T07:29:01.722Z,9.43
2023-09-24T07:30:01.571Z,9.43
2023-09-24T07:31:00.799Z,9.39
2023-09-24T07:32:01.560Z,9.40
2023-09-24T07:33:01.558Z,9.31
2023-09-24T07:34:02.105Z,9.30
2023-09-24T07:35:00.739Z,9.23
2023-09-24T07:36:03.459Z,9.20
2023-09-24T07:37:13.430Z,9.24
2023-09-24T07:38:01.789Z,9.15
2023-09-24T07:39:00.813Z,9.30
2023-09-24T07:40:01.378Z,9.46
2023-09-24T07:41:01.363Z,9.50
2023-09-24T07:42:02.444Z,9.64
2023-09-24T07:43:01.337Z,9.64
2023-09-24T07:44:00.625Z,9.61
2023-09-24T07:45:01.324Z,9.75
2023-09-24T07:46:01.357Z,9.91
2023-09-24T07:47:01.268Z,9.97
2023-09-24T07:48:01.343Z,10.00
2023-09-24T07:49:01.854Z,10.06
2023-09-24T07:50:00.584Z,10.19
2023-09-24T07:51:01.275Z,10.34
2023-09-24T07:52:00.578Z,10.28
2023-09-24T07:53:01.199Z,10.32
2023-09-24T07:54:01.778Z,10.36
2023-09-24T07:55:00.566Z,10.42
2023-09-24T07:56:01.703Z,10.46
2023-09-24T07:57:01.731Z,10.62
2023-09-24T07:58:01.731Z,10.74
2023-09-24T07:59:01.677Z,10.80
2023-09-24T08:00:01.666Z,10.81
2023-09-24T08:01:02.585Z,10.80
2023-09-24T08:02:01.649Z,10.98
2023-09-24T08:03:00.457Z,11.09
2023-09-24T08:04:01.611Z,11.20
2023-09-24T08:05:01.614Z,11.32
2023-09-24T08:06:01.604Z,11.20
2023-09-24T08:07:00.379Z,11.21
2023-09-24T08:08:01.552Z,11.44
2023-09-24T08:09:18.222Z,11.68
2023-09-24T08:10:01.328Z,11.87
2023-09-24T08:11:00.988Z,11.87
2023-09-24T08:12:00.304Z,12.15
2023-09-24T08:13:01.512Z,12.16
2023-09-24T08:14:00.234Z,12.13
2023-09-24T08:15:00.952Z,12.45
2023-09-24T08:16:01.005Z,12.69
2023-09-24T08:17:00.930Z,12.71
2023-09-24T08:18:00.962Z,12.85
2023-09-24T08:19:02.662Z,13.22
2023-09-24T08:20:01.804Z,13.58
2023-09-24T08:21:00.891Z,13.87
2023-09-24T08:22:01.787Z,14.02
2023-09-24T08:23:00.789Z,14.20
2023-09-24T08:24:01.340Z,14.12
2023-09-24T08:25:00.759Z,14.38
2023-09-24T08:26:00.770Z,14.37
2023-09-24T08:27:00.764Z,14.13
2023-09-24T08:28:00.046Z,14.13
2023-09-24T08:29:00.086Z,13.95
2023-09-24T08:30:00.109Z,13.69
2023-09-24T08:31:00.738Z,13.84
2023-09-24T08:32:00.657Z,14.17
2023-09-24T08:33:00.140Z,14.56
2023-09-24T08:34:00.640Z,15.33
2023-09-24T08:34:59.938Z,15.74
2023-09-24T08:36:00.749Z,16.45
2023-09-24T08:37:00.587Z,16.42
2023-09-24T08:37:59.898Z,16.42
2023-09-24T08:39:01.658Z,16.49
2023-09-24T08:39:59.880Z,17.44
2023-09-24T08:40:59.846Z,17.38
2023-09-24T08:41:59.968Z,17.53
2023-09-24T08:42:59.923Z,17.73
2023-09-24T08:43:59.818Z,18.24
2023-09-24T08:44:59.800Z,18.54
2023-09-24T08:45:59.774Z,18.22
2023-09-24T08:47:01.601Z,18.99
2023-09-24T08:48:00.541Z,19.69
2023-09-24T08:49:00.430Z,20.35
2023-09-24T08:49:59.771Z,18.98
2023-09-24T08:51:00.458Z,18.72
2023-09-24T08:51:59.715Z,18.74
2023-09-24T08:53:00.392Z,19.21
2023-09-24T08:54:00.401Z,19.70
2023-09-24T08:55:00.397Z,20.53
2023-09-24T08:55:59.662Z,20.61
2023-09-24T08:56:59.716Z,21.05
2023-09-24T08:58:00.310Z,21.67
2023-09-24T08:58:59.599Z,21.94
2023-09-24T09:00:00.874Z,21.30
2023-09-24T09:01:00.839Z,20.65
2023-09-24T09:02:00.885Z,21.13
2023-09-24T09:02:59.677Z,21.41
2023-09-24T09:04:00.966Z,21.63
2023-09-24T09:04:59.530Z,22.27
2023-09-24T09:06:01.267Z,22.16
2023-09-24T09:06:59.510Z,22.80
2023-09-24T09:08:00.197Z,23.31
2023-09-24T09:09:01.144Z,23.64
2023-09-24T09:10:00.219Z,23.23
2023-09-24T09:10:59.539Z,23.49
2023-09-24T09:12:00.155Z,23.42
2023-09-24T09:12:59.590Z,24.00
2023-09-24T09:14:00.132Z,24.16
2023-09-24T09:15:00.126Z,24.00
2023-09-24T09:16:00.089Z,23.47
2023-09-24T09:17:00.052Z,24.02
2023-09-24T09:18:01.447Z,24.56
2023-09-24T09:19:00.066Z,24.82
2023-09-24T09:20:00.066Z,25.25
2023-09-24T09:21:00.088Z,25.43
2023-09-24T09:22:00.023Z,25.12
2023-09-24T09:23:00.597Z,24.91
2023-09-24T09:24:00.061Z,24.77
2023-09-24T09:24:59.966Z,24.56
2023-09-24T09:25:59.953Z,24.47
2023-09-24T09:26:59.348Z,24.45
2023-09-24T09:27:59.245Z,24.60
2023-09-24T09:28:59.907Z,24.61
2023-09-24T09:29:59.928Z,24.68
2023-09-24T09:30:59.348Z,24.54
2023-09-24T09:32:01.557Z,25.15
2023-09-24T09:32:59.972Z,24.07
2023-09-24T09:34:01.133Z,24.07
2023-09-24T09:34:59.840Z,24.88
2023-09-24T09:36:00.917Z,25.28
2023-09-24T09:36:59.823Z,25.67
2023-09-24T09:37:59.801Z,25.89
2023-09-24T09:39:00.056Z,25.99
2023-09-24T09:39:59.121Z,26.68
2023-09-24T09:40:59.742Z,26.98
2023-09-24T09:41:59.776Z,26.81
2023-09-24T09:42:59.721Z,26.95
2023-09-24T09:43:59.080Z,26.18
2023-09-24T09:44:59.724Z,26.15
2023-09-24T09:45:59.100Z,26.22
2023-09-24T09:46:59.676Z,26.39
2023-09-24T09:47:59.149Z,27.04
2023-09-24T09:48:59.654Z,26.98
2023-09-24T09:49:59.662Z,26.80
2023-09-24T09:50:59.027Z,27.13
2023-09-24T09:51:59.642Z,26.06
2023-09-24T09:52:59.602Z,25.86
2023-09-24T09:53:58.955Z,25.67
2023-09-24T09:54:59.610Z,26.27
2023-09-24T09:55:59.621Z,26.68
2023-09-24T09:56:59.593Z,26.92
2023-09-24T09:58:07.779Z,27.35
2023-09-24T09:59:00.556Z,27.50
2023-09-24T09:59:59.588Z,27.76
2023-09-24T10:00:58.913Z,27.80
2023-09-24T10:02:00.975Z,28.07
2023-09-24T10:02:59.412Z,28.43
2023-09-24T10:03:59.470Z,28.54
2023-09-24T10:04:59.495Z,28.60
2023-09-24T10:05:59.531Z,28.10
2023-09-24T10:06:58.807Z,26.31
2023-09-24T10:07:58.734Z,26.06
2023-09-24T10:08:59.460Z,26.01
2023-09-24T10:09:58.721Z,26.42
2023-09-24T10:10:59.360Z,26.43
2023-09-24T10:11:59.942Z,25.77
2023-09-24T10:12:59.912Z,25.31
2023-09-24T10:13:59.895Z,25.72
2023-09-24T10:14:58.671Z,25.91
2023-09-24T10:15:59.344Z,26.01
2023-09-24T10:16:58.599Z,26.11
2023-09-24T10:17:59.407Z,25.79
2023-09-24T10:18:59.918Z,24.76
2023-09-24T10:20:00.780Z,24.61
2023-09-24T10:20:59.945Z,24.35
2023-09-24T10:21:59.825Z,24.10
2023-09-24T10:22:59.810Z,24.41
2023-09-24T10:23:58.529Z,23.87
2023-09-24T10:24:58.537Z,24.59
2023-09-24T10:25:59.164Z,24.76
2023-09-24T10:26:58.512Z,24.71
2023-09-24T10:28:07.769Z,24.64
2023-09-24T10:28:59.476Z,24.75
2023-09-24T10:29:59.154Z,23.27
2023-09-24T10:30:58.445Z,22.84
2023-09-24T10:31:59.712Z,22.92
2023-09-24T10:32:59.169Z,22.57
2023-09-24T10:33:59.270Z,22.12
2023-09-24T10:34:59.070Z,21.99
2023-09-24T10:35:58.469Z,21.60
2023-09-24T10:36:59.052Z,21.30
2023-09-24T10:37:58.385Z,21.11
2023-09-24T10:39:03.869Z,20.93
2023-09-24T10:39:58.378Z,20.99
2023-09-24T10:40:58.320Z,20.89
2023-09-24T10:41:58.373Z,20.99
2023-09-24T10:42:58.264Z,21.35
2023-09-24T10:43:58.374Z,21.63
2023-09-24T10:44:58.348Z,21.99
2023-09-24T10:45:58.956Z,22.31
2023-09-24T10:47:00.054Z,22.99
2023-09-24T10:47:58.262Z,23.62
2023-09-24T10:48:58.549Z,24.00
2023-09-24T10:49:58.221Z,24.07
2023-09-24T10:50:58.308Z,23.42
2023-09-24T10:51:58.856Z,23.26
2023-09-24T10:52:58.146Z,23.90
2023-09-24T10:53:58.938Z,24.14
2023-09-24T10:54:59.333Z,23.42
2023-09-24T10:56:11.038Z,23.61
2023-09-24T10:56:59.816Z,24.08
2023-09-24T10:57:58.100Z,25.12
2023-09-24T10:58:58.781Z,25.02
2023-09-24T10:59:58.163Z,24.44
2023-09-24T11:00:58.874Z,25.19
2023-09-24T11:01:58.106Z,25.69
2023-09-24T11:02:58.854Z,26.64
2023-09-24T11:03:58.135Z,26.92
2023-09-24T11:04:57.965Z,27.20
2023-09-24T11:05:58.090Z,27.69
2023-09-24T11:06:58.701Z,28.03
2023-09-24T11:07:58.661Z,28.50
2023-09-24T11:08:57.996Z,27.80
2023-09-24T11:09:58.181Z,27.71
2023-09-24T11:10:58.973Z,27.99
2023-09-24T11:11:58.659Z,28.07
2023-09-24T11:12:58.605Z,27.89
2023-09-24T11:13:59.615Z,28.36
2023-09-24T11:15:14.138Z,28.16
2023-09-24T11:15:59.618Z,28.56
2023-09-24T11:16:58.569Z,28.90
2023-09-24T11:17:59.178Z,28.13
2023-09-24T11:18:58.571Z,27.99
2023-09-24T11:19:57.833Z,27.46
2023-09-24T11:20:57.891Z,27.21
2023-09-24T11:21:58.493Z,27.42
2023-09-24T11:22:58.463Z,27.59
2023-09-24T11:23:57.839Z,26.96
2023-09-24T11:24:58.439Z,25.42
2023-09-24T11:25:58.475Z,25.62
2023-09-24T11:26:58.452Z,25.17
2023-09-24T11:27:57.768Z,25.79
2023-09-24T11:28:58.361Z,26.62
2023-09-24T11:29:57.773Z,27.09
2023-09-24T11:30:58.367Z,26.98
2023-09-24T11:31:58.354Z,27.01
2023-09-24T11:32:58.391Z,27.14
2023-09-24T11:33:58.336Z,26.67
2023-09-24T11:34:57.634Z,26.80
2023-09-24T11:35:58.355Z,26.68
2023-09-24T11:36:58.289Z,26.28
2023-09-24T11:37:57.627Z,26.44
2023-09-24T11:38:58.297Z,26.20
2023-09-24T11:39:58.271Z,26.58
2023-09-24T11:40:58.807Z,26.68
2023-09-24T11:41:58.303Z,27.16
2023-09-24T11:42:58.779Z,27.54
2023-09-24T11:43:58.751Z,28.23
2023-09-24T11:44:58.808Z,27.84
2023-09-24T11:45:58.745Z,26.95
2023-09-24T11:46:58.237Z,26.84
2023-09-24T11:47:57.648Z,26.12
2023-09-24T11:48:58.773Z,25.83
2023-09-24T11:49:57.428Z,24.91
2023-09-24T11:50:58.198Z,24.94
2023-09-24T11:51:58.091Z,25.20
2023-09-24T11:52:58.103Z,25.06
2023-09-24T11:53:57.395Z,24.95
2023-09-24T11:54:58.120Z,24.77
2023-09-24T11:55:57.388Z,24.95
2023-09-24T11:56:59.509Z,25.79
2023-09-24T11:57:58.019Z,26.28
2023-09-24T11:58:58.004Z,27.04
2023-09-24T11:59:58.064Z,27.35
2023-09-24T12:00:57.372Z,27.05
2023-09-24T12:01:57.934Z,26.59
2023-09-24T12:02:58.060Z,26.58
2023-09-24T12:03:57.348Z,26.81
2023-09-24T12:04:58.978Z,27.13
2023-09-24T12:05:57.935Z,27.31
2023-09-24T12:06:57.283Z,26.81
2023-09-24T12:07:57.905Z,26.95
2023-09-24T12:08:57.928Z,27.16
2023-09-24T12:09:57.226Z,27.06
2023-09-24T12:10:57.245Z,27.53
2023-09-24T12:11:57.277Z,27.94
2023-09-24T12:12:57.841Z,28.01
2023-09-24T12:13:57.841Z,26.81
2023-09-24T12:14:57.164Z,27.26
2023-09-24T12:15:57.136Z,28.06
2023-09-24T12:16:57.774Z,27.28
2023-09-24T12:17:57.162Z,26.67
2023-09-24T12:18:57.844Z,25.38
2023-09-24T12:19:57.755Z,25.79
2023-09-24T12:20:57.106Z,26.62
2023-09-24T12:21:57.730Z,26.06
2023-09-24T12:22:57.738Z,26.49
2023-09-24T12:23:57.747Z,26.68
2023-09-24T12:24:57.688Z,27.26
2023-09-24T12:25:57.051Z,27.54
2023-09-24T12:26:57.721Z,26.21
2023-09-24T12:27:56.965Z,25.75
2023-09-24T12:28:56.993Z,25.62
2023-09-24T12:29:57.708Z,24.76
2023-09-24T12:30:58.695Z,25.17
2023-09-24T12:31:56.942Z,25.00
2023-09-24T12:32:57.087Z,25.06
2023-09-24T12:33:57.686Z,24.75
2023-09-24T12:34:56.886Z,24.41
2023-09-24T12:35:57.561Z,24.61
2023-09-24T12:36:57.551Z,25.19
2023-09-24T12:37:58.110Z,25.71
2023-09-24T12:38:59.421Z,26.04
2023-09-24T12:39:57.496Z,26.31
2023-09-24T12:40:58.793Z,26.44
2023-09-24T12:41:58.040Z,25.97
2023-09-24T12:42:58.012Z,26.01
2023-09-24T12:43:57.989Z,26.36
2023-09-24T12:44:58.007Z,25.52
2023-09-24T12:45:56.793Z,25.27
2023-09-24T12:46:58.067Z,25.69
2023-09-24T12:47:58.537Z,26.18
2023-09-24T12:48:57.973Z,26.09
2023-09-24T12:49:57.896Z,26.06
2023-09-24T12:50:57.920Z,26.40
2023-09-24T12:51:59.400Z,26.64
2023-09-24T12:52:57.315Z,26.86
2023-09-24T12:53:57.894Z,27.28
2023-09-24T12:54:57.314Z,27.21
2023-09-24T12:55:56.641Z,27.58
2023-09-24T12:56:57.299Z,27.62
2023-09-24T12:57:56.585Z,27.35
2023-09-24T12:58:57.251Z,27.54
2023-09-24T12:59:56.671Z,27.29
2023-09-24T13:00:56.553Z,26.79
2023-09-24T13:01:57.242Z,27.01
2023-09-24T13:02:56.601Z,27.10
2023-09-24T13:03:56.622Z,26.83
2023-09-24T13:04:56.458Z,26.35
2023-09-24T13:05:57.201Z,26.29
2023-09-24T13:06:58.104Z,26.55